createdAt,value
2023-10-31T00:01:24.337Z,14.89
2023-10-31T00:04:30.136Z,15.06
2023-10-31T00:07:35.473Z,14.99
2023-10-31T00:10:41.359Z,14.81
2023-10-31T00:13:46.715Z,14.81
2023-10-31T00:16:52.310Z,14.78
2023-10-31T00:19:57.994Z,14.77
2023-10-31T00:23:04.287Z,15.07
2023-10-31T00:26:10.684Z,15.01
2023-10-31T00:29:19.682Z,14.95
2023-10-31T00:32:24.923Z,14.88
2023-10-31T00:35:30.793Z,14.75
2023-10-31T00:38:36.699Z,14.78
2023-10-31T00:41:42.278Z,14.66
2023-10-31T00:44:47.146Z,14.66
2023-10-31T00:47:53.137Z,14.53
2023-10-31T00:51:00.324Z,14.59
2023-10-31T00:54:05.634Z,14.72
2023-10-31T00:57:10.865Z,14.60
2023-10-31T01:00:17.496Z,15.06
2023-10-31T01:03:23.482Z,15.05
2023-10-31T01:06:29.918Z,15.07
2023-10-31T01:09:35.180Z,15.21
2023-10-31T01:12:42.367Z,15.36
2023-10-31T01:15:47.497Z,15.34
2023-10-31T01:18:52.639Z,15.02
2023-10-31T01:21:58.226Z,15.25
2023-10-31T01:25:03.615Z,15.28
2023-10-31T01:28:10.610Z,15.27
2023-10-31T01:31:16.654Z,15.32
2023-10-31T01:34:22.152Z,15.40
2023-10-31T01:37:28.529Z,15.38
2023-10-31T01:40:34.989Z,15.34
2023-10-31T01:43:53.109Z,15.40
2023-10-31T01:46:58.562Z,15.25
2023-10-31T01:50:04.702Z,15.34
2023-10-31T01:53:09.909Z,15.28
2023-10-31T01:56:15.030Z,15.22
2023-10-31T01:59:21.385Z,15.34
2023-10-31T02:02:26.973Z,15.29
2023-10-31T02:05:34.648Z,15.32
2023-10-31T02:08:40.758Z,15.39
2023-10-31T02:11:45.763Z,15.49
2023-10-31T02:14:51.394Z,15.47
2023-10-31T02:17:57.881Z,15.73
2023-10-31T02:21:04.922Z,15.88
2023-10-31T02:24:18.258Z,15.77
2023-10-31T02:27:23.539Z,15.77
2023-10-31T02:30:30.373Z,15.79
2023-10-31T02:33:35.722Z,15.74
2023-10-31T02:36:41.378Z,15.85
2023-10-31T02:39:48.234Z,15.97
2023-10-31T02:42:54.771Z,15.95
2023-10-31T02:46:00.919Z,16.00
2023-10-31T02:49:07.326Z,15.90
2023-10-31T02:52:12.815Z,15.88
2023-10-31T02:55:19.732Z,15.79
2023-10-31T02:58:24.606Z,15.75
2023-10-31T03:01:30.333Z,15.72
2023-10-31T03:04:36.666Z,15.75
2023-10-31T03:07:42.751Z,15.68
2023-10-31T03:10:48.233Z,15.67
2023-10-31T03:13:53.446Z,15.58
2023-10-31T03:16:58.604Z,15.53
2023-10-31T03:20:04.998Z,15.59
2023-10-31T03:23:11.380Z,15.54
2023-10-31T03:26:17.046Z,15.63
2023-10-31T03:29:22.670Z,15.51
2023-10-31T03:32:28.224Z,15.58
2023-10-31T03:35:33.480Z,15.53
2023-10-31T03:38:39.834Z,15.58
2023-10-31T03:41:46.102Z,15.48
2023-10-31T03:44:51.469Z,15.62
2023-10-31T03:47:56.738Z,15.68
2023-10-31T03:51:02.087Z,15.68
2023-10-31T03:54:07.195Z,15.76
2023-10-31T03:57:13.237Z,15.76
2023-10-31T04:00:19.752Z,15.75
2023-10-31T04:03:25.402Z,15.82
2023-10-31T04:06:31.159Z,15.87
2023-10-31T04:09:37.397Z,15.89
2023-10-31T04:12:43.351Z,15.86
2023-10-31T04:15:48.595Z,16.03
2023-10-31T04:18:53.624Z,15.97
2023-10-31T04:21:58.766Z,15.63
2023-10-31T04:25:04.894Z,15.66
2023-10-31T04:28:11.233Z,15.60
2023-10-31T04:31:20.341Z,15.66
2023-10-31T04:34:25.411Z,15.72
2023-10-31T04:37:33.890Z,15.58
2023-10-31T04:40:38.592Z,15.43
2023-10-31T04:43:44.578Z,15.66
2023-10-31T04:46:50.106Z,15.72
2023-10-31T04:49:56.578Z,15.68
2023-10-31T04:53:02.407Z,15.76
2023-10-31T04:56:08.955Z,15.79
2023-10-31T04:59:15.105Z,15.62
2023-10-31T05:02:20.434Z,15.66
2023-10-31T05:05:25.669Z,15.75
2023-10-31T05:08:30.936Z,15.67
2023-10-31T05:11:36.261Z,15.52
2023-10-31T05:14:42.398Z,15.41
2023-10-31T05:17:48.161Z,15.47
2023-10-31T05:20:53.833Z,15.49
2023-10-31T05:23:59.750Z,15.50
2023-10-31T05:27:05.516Z,15.62
2023-10-31T05:30:11.529Z,15.88
2023-10-31T05:33:18.258Z,15.98
2023-10-31T05:36:36.485Z,16.19
2023-10-31T05:39:44.660Z,16.31
2023-10-31T05:42:50.713Z,16.44
2023-10-31T05:45:56.740Z,16.47
2023-10-31T05:49:01.815Z,16.39
2023-10-31T05:52:08.114Z,16.40
2023-10-31T05:55:14.251Z,16.27
2023-10-31T05:58:20.699Z,16.58
2023-10-31T06:01:26.692Z,16.64
2023-10-31T06:04:33.166Z,16.79
2023-10-31T06:07:39.566Z,17.05
2023-10-31T06:10:45.297Z,17.26
2023-10-31T06:13:51.667Z,17.25
2023-10-31T06:16:59.569Z,17.29
2023-10-31T06:20:04.734Z,17.38
2023-10-31T06:23:11.768Z,17.61
2023-10-31T06:26:17.298Z,17.48
2023-10-31T06:29:42.995Z,17.46
2023-10-31T06:32:30.887Z,17.63
2023-10-31T06:35:38.137Z,17.43
2023-10-31T06:38:43.017Z,17.66
2023-10-31T06:41:48.242Z,17.86
2023-10-31T06:44:53.728Z,18.12
2023-10-31T06:47:59.208Z,18.32
2023-10-31T06:51:05.403Z,18.47
2023-10-31T06:54:11.394Z,18.40
2023-10-31T06:57:16.626Z,18.47
2023-10-31T07:00:27.002Z,18.58
2023-10-31T07:03:32.298Z,18.60
2023-10-31T07:06:40.324Z,18.74
2023-10-31T07:09:49.569Z,18.94
2023-10-31T07:12:55.109Z,18.95
2023-10-31T07:16:00.798Z,18.98
2023-10-31T07:19:07.653Z,19.10
2023-10-31T07:22:12.928Z,19.43
2023-10-31T07:25:19.823Z,19.61
2023-10-31T07:28:25.170Z,19.63
2023-10-31T07:31:31.199Z,19.43
2023-10-31T07:34:37.889Z,19.73
2023-10-31T07:37:43.295Z,19.82
2023-10-31T07:40:49.078Z,19.94
2023-10-31T07:43:55.453Z,20.27
2023-10-31T07:47:01.065Z,20.46
2023-10-31T07:50:07.571Z,20.41
2023-10-31T07:53:14.079Z,20.39
2023-10-31T07:56:20.243Z,20.37
2023-10-31T07:59:26.302Z,20.63
2023-10-31T08:02:31.563Z,20.98
2023-10-31T08:05:37.100Z,20.80
2023-10-31T08:08:42.294Z,20.71
2023-10-31T08:11:47.770Z,20.67
2023-10-31T08:14:54.276Z,20.86
2023-10-31T08:18:01.573Z,21.02
2023-10-31T08:21:08.029Z,21.04
2023-10-31T08:24:13.293Z,21.37
2023-10-31T08:27:21.074Z,21.46
2023-10-31T08:30:28.393Z,21.61
2023-10-31T08:33:33.534Z,21.75
2023-10-31T08:36:40.074Z,21.63
2023-10-31T08:39:45.430Z,21.84
2023-10-31T08:42:51.101Z,21.99
2023-10-31T08:45:56.612Z,21.87
2023-10-31T08:49:02.294Z,22.02
2023-10-31T08:52:09.812Z,22.26
2023-10-31T08:55:15.518Z,22.23
2023-10-31T08:58:26.464Z,22.23
2023-10-31T09:01:33.336Z,22.23
2023-10-31T09:04:39.407Z,22.19
2023-10-31T09:07:45.053Z,22.28
2023-10-31T09:10:54.660Z,22.27
2023-10-31T09:13:59.906Z,22.28
2023-10-31T09:17:05.999Z,22.41
2023-10-31T09:20:12.162Z,22.38
2023-10-31T09:23:18.514Z,22.54
2023-10-31T09:26:25.871Z,22.71
2023-10-31T09:29:32.244Z,22.78
2023-10-31T09:32:39.372Z,22.82
2023-10-31T09:35:45.451Z,22.84
2023-10-31T09:38:50.629Z,22.94
2023-10-31T09:41:55.973Z,23.03
2023-10-31T09:45:04.472Z,23.09
2023-10-31T09:48:10.087Z,23.19
2023-10-31T09:51:18.996Z,23.30
2023-10-31T09:54:25.003Z,23.24
2023-10-31T09:57:31.158Z,23.31
2023-10-31T10:00:37.050Z,23.42
2023-10-31T10:03:51.829Z,23.42
2023-10-31T10:07:09.532Z,23.43
2023-10-31T10:10:15.471Z,23.50
2023-10-31T10:13:22.104Z,23.60
2023-10-31T10:16:27.863Z,23.60
2023-10-31T10:19:36.360Z,23.66
2023-10-31T10:22:44.384Z,23.82
2023-10-31T10:25:50.782Z,23.78
2023-10-31T10:28:56.793Z,23.79
2023-10-31T10:32:02.673Z,23.86
2023-10-31T10:35:10.041Z,23.98
2023-10-31T10:38:16.111Z,24.00
2023-10-31T10:41:22.344Z,24.14
2023-10-31T10:44:28.356Z,24.06
2023-10-31T10:47:34.843Z,23.99
2023-10-31T10:50:41.403Z,23.99
2023-10-31T10:53:53.406Z,24.12
2023-10-31T10:57:09.274Z,24.32
2023-10-31T11:00:21.128Z,24.36
2023-10-31T11:03:26.728Z,24.47
2023-10-31T11:49:09.940Z,21.64
2023-10-31T11:52:16.953Z,21.79
2023-10-31T11:55:29.163Z,21.81
2023-10-31T11:58:39.809Z,22.00
2023-10-31T12:01:46.647Z,21.64
2023-10-31T12:04:53.464Z,21.90
2023-10-31T12:08:01.357Z,21.62
2023-10-31T12:11:06.915Z,21.82
2023-10-31T12:14:17.061Z,21.85
2023-10-31T12:17:24.197Z,22.06
2023-10-31T12:20:31.012Z,22.06
2023-10-31T12:23:36.987Z,21.85
2023-10-31T12:26:42.965Z,21.97
2023-10-31T12:29:47.819Z,21.83
2023-10-31T12:32:55.089Z,21.79
2023-10-31T12:36:04.131Z,21.97
2023-10-31T12:39:11.351Z,21.81
2023-10-31T12:42:19.578Z,21.92
2023-10-31T12:45:26.110Z,21.85
2023-10-31T12:48:31.094Z,21.96
2023-10-31T12:51:37.479Z,21.89
2023-10-31T12:54:53.929Z,22.09
2023-10-31T12:57:59.975Z,21.85
2023-10-31T13:01:06.867Z,21.89
2023-10-31T13:04:12.594Z,22.26
2023-10-31T13:07:21.924Z,21.94
2023-10-31T13:10:27.495Z,21.95
2023-10-31T13:13:33.224Z,21.88
2023-10-31T13:16:38.206Z,21.49
2023-10-31T13:19:43.731Z,21.95
2023-10-31T13:22:51.646Z,21.71
2023-10-31T13:25:57.409Z,21.74
2023-10-31T13:29:02.669Z,21.72
2023-10-31T13:32:11.001Z,21.62
2023-10-31T13:35:19.837Z,21.59
2023-10-31T13:38:26.120Z,21.54
2023-10-31T13:41:31.546Z,21.58
2023-10-31T13:44:38.298Z,21.26
2023-10-31T13:47:46.177Z,21.19
2023-10-31T13:50:52.834Z,21.18
2023-10-31T13:53:58.951Z,21.25
2023-10-31T13:57:06.861Z,21.05
2023-10-31T14:00:12.991Z,21.05
2023-10-31T14:03:19.672Z,21.09
2023-10-31T14:06:26.912Z,20.77
2023-10-31T14:09:33.508Z,20.81
2023-10-31T14:12:39.422Z,20.39
2023-10-31T14:15:46.270Z,20.46
2023-10-31T14:18:54.287Z,20.35
2023-10-31T14:22:03.372Z,20.37
2023-10-31T14:25:11.084Z,20.47
2023-10-31T14:28:16.893Z,20.35
2023-10-31T14:31:23.366Z,20.33
2023-10-31T14:34:28.160Z,20.27
2023-10-31T14:37:36.116Z,20.08
2023-10-31T14:40:41.974Z,19.79
2023-10-31T14:43:47.637Z,19.69
2023-10-31T14:46:53.777Z,19.44
2023-10-31T14:49:59.532Z,19.25
2023-10-31T14:53:06.424Z,19.31
2023-10-31T14:56:14.183Z,19.36
2023-10-31T14:59:23.630Z,19.54
2023-10-31T15:02:28.684Z,19.34
2023-10-31T15:05:35.834Z,19.49
2023-10-31T15:08:41.584Z,19.37
2023-10-31T15:11:47.881Z,19.30
2023-10-31T15:14:53.900Z,19.35
2023-10-31T15:18:01.855Z,19.30
2023-10-31T15:21:08.201Z,19.27
2023-10-31T15:24:15.888Z,19.21
2023-10-31T15:27:23.694Z,19.01
2023-10-31T15:30:29.306Z,19.07
2023-10-31T15:33:34.448Z,19.09
2023-10-31T15:36:40.288Z,19.24
2023-10-31T15:39:45.480Z,19.39
2023-10-31T15:42:51.192Z,19.21
2023-10-31T15:45:56.599Z,19.10
2023-10-31T15:49:03.656Z,19.46
2023-10-31T15:52:10.101Z,19.41
2023-10-31T15:55:14.737Z,19.10
2023-10-31T15:58:19.720Z,18.88
2023-10-31T16:01:24.962Z,18.92
2023-10-31T16:04:31.787Z,19.08
2023-10-31T16:07:37.253Z,18.73
2023-10-31T16:10:42.658Z,18.75
2023-10-31T16:13:49.256Z,18.71
2023-10-31T16:16:55.297Z,18.90
2023-10-31T16:20:01.533Z,18.77
2023-10-31T16:23:07.282Z,18.66
2023-10-31T16:26:15.568Z,18.87
2023-10-31T16:29:23.470Z,18.34
2023-10-31T16:32:29.653Z,18.11
2023-10-31T16:35:35.867Z,18.43
2023-10-31T16:38:42.313Z,18.34
2023-10-31T16:41:48.124Z,18.37
2023-10-31T16:44:55.773Z,18.30
2023-10-31T16:48:03.700Z,18.39
2023-10-31T16:51:09.882Z,18.50
2023-10-31T16:54:15.487Z,18.45
2023-10-31T16:57:20.930Z,18.20
2023-10-31T17:00:27.104Z,18.72
2023-10-31T17:03:32.537Z,18.72
2023-10-31T17:06:38.964Z,18.25
2023-10-31T17:09:45.344Z,18.24
2023-10-31T17:12:51.289Z,18.28
2023-10-31T17:15:56.081Z,18.09
2023-10-31T17:19:02.728Z,18.39
2023-10-31T17:22:08.211Z,18.17
2023-10-31T17:25:13.357Z,18.07
2023-10-31T17:28:19.370Z,18.13
2023-10-31T17:31:18.283Z,18.21
2023-10-31T17:34:12.305Z,17.84
2023-10-31T17:37:18.111Z,17.89
2023-10-31T17:40:24.813Z,17.96
2023-10-31T17:43:30.574Z,17.78
2023-10-31T17:46:35.787Z,17.68
2023-10-31T17:49:40.690Z,17.48
2023-10-31T17:52:46.936Z,17.68
2023-10-31T17:55:55.427Z,17.46
2023-10-31T17:59:01.489Z,17.57
2023-10-31T18:02:07.310Z,17.81
2023-10-31T18:05:16.674Z,17.84
2023-10-31T18:08:21.860Z,17.94
2023-10-31T18:11:27.556Z,18.11
2023-10-31T18:14:34.333Z,18.11
2023-10-31T18:17:39.899Z,17.50
2023-10-31T18:20:46.061Z,17.36
2023-10-31T18:23:52.886Z,17.21
2023-10-31T18:26:58.519Z,17.26
2023-10-31T18:30:09.619Z,17.26
2023-10-31T18:33:15.034Z,17.21
2023-10-31T18:36:27.379Z,17.10
2023-10-31T18:39:28.448Z,16.91
2023-10-31T18:42:33.547Z,16.79
2023-10-31T18:45:39.000Z,16.78
2023-10-31T18:48:47.144Z,16.91
2023-10-31T18:51:53.742Z,16.93
2023-10-31T18:55:01.532Z,16.83
2023-10-31T18:58:06.518Z,16.58
2023-10-31T19:01:13.109Z,16.57
2023-10-31T19:04:21.518Z,16.48
2023-10-31T19:07:27.516Z,16.41
2023-10-31T19:10:34.139Z,16.71
2023-10-31T19:13:40.037Z,16.63
2023-10-31T19:16:45.462Z,16.48
2023-10-31T19:19:52.136Z,16.65
2023-10-31T19:22:58.604Z,17.00
2023-10-31T19:26:04.995Z,16.48
2023-10-31T19:29:10.811Z,16.44
2023-10-31T19:32:16.548Z,16.40
2023-10-31T19:35:23.115Z,16.42
2023-10-31T19:38:29.301Z,16.42
2023-10-31T19:41:35.885Z,16.47
2023-10-31T19:44:42.804Z,16.15
2023-10-31T19:47:49.377Z,16.36
2023-10-31T19:50:56.005Z,16.30
2023-10-31T19:54:00.846Z,16.14
2023-10-31T19:57:07.859Z,16.05
2023-10-31T20:00:13.590Z,15.94
2023-10-31T20:03:20.675Z,15.88
2023-10-31T20:06:27.249Z,16.01
2023-10-31T20:09:32.678Z,15.77
2023-10-31T20:12:38.602Z,16.17
2023-10-31T20:15:45.436Z,16.24
2023-10-31T20:18:51.499Z,16.09
2023-10-31T20:21:59.233Z,16.06
2023-10-31T20:25:04.403Z,15.90
2023-10-31T20:28:10.281Z,16.03
2023-10-31T20:31:15.987Z,15.76
2023-10-31T20:34:22.812Z,15.65
2023-10-31T20:37:28.532Z,15.63
2023-10-31T20:40:35.675Z,15.76
2023-10-31T20:43:42.231Z,15.55
2023-10-31T20:46:49.133Z,15.54
2023-10-31T20:49:55.034Z,15.41
2023-10-31T20:53:03.469Z,15.65
2023-10-31T20:56:09.213Z,15.47
2023-10-31T20:59:17.854Z,15.62
2023-10-31T21:02:24.315Z,15.55
2023-10-31T21:05:31.001Z,15.62
2023-10-31T21:08:38.168Z,15.51
2023-10-31T21:11:43.742Z,15.23
2023-10-31T21:14:50.019Z,15.32
2023-10-31T21:17:56.230Z,15.49
2023-10-31T21:21:02.632Z,15.61
2023-10-31T21:24:09.065Z,15.58
2023-10-31T21:27:14.546Z,15.64
2023-10-31T21:30:22.251Z,15.56
2023-10-31T21:33:30.582Z,15.42
2023-10-31T21:36:36.628Z,15.67
2023-10-31T21:39:42.475Z,15.49
2023-10-31T21:42:47.444Z,15.44
2023-10-31T21:45:53.461Z,15.44
2023-10-31T21:48:59.047Z,15.35
2023-10-31T21:52:05.161Z,15.68
2023-10-31T21:55:12.790Z,15.49
2023-10-31T21:58:18.867Z,15.45
2023-10-31T22:01:24.105Z,15.15
2023-10-31T22:04:29.600Z,15.06
2023-10-31T22:07:35.706Z,15.29
2023-10-31T22:10:42.113Z,15.29
2023-10-31T22:13:48.306Z,15.32
2023-10-31T22:16:53.718Z,15.38
2023-10-31T22:20:00.484Z,15.13
2023-10-31T22:23:06.757Z,15.19
2023-10-31T22:26:11.765Z,15.34
2023-10-31T22:29:19.537Z,15.43
2023-10-31T22:32:25.195Z,15.53
2023-10-31T22:35:31.005Z,15.63
2023-10-31T22:38:36.325Z,15.52
2023-10-31T22:41:41.826Z,15.40
2023-10-31T22:44:47.476Z,15.08
2023-10-31T22:47:55.351Z,14.70
2023-10-31T22:51:02.186Z,14.95
2023-10-31T22:54:08.434Z,14.91
2023-10-31T22:57:14.745Z,14.72
2023-10-31T23:00:26.379Z,14.45
2023-10-31T23:03:32.934Z,14.47
2023-10-31T23:06:40.714Z,14.52
2023-10-31T23:09:46.759Z,14.76
2023-10-31T23:12:54.287Z,14.62
2023-10-31T23:16:00.675Z,14.80
2023-10-31T23:19:05.752Z,14.72
2023-10-31T23:22:11.887Z,14.66
2023-10-31T23:25:17.313Z,14.84
2023-10-31T23:28:24.095Z,14.80
2023-10-31T23:31:30.682Z,14.77
2023-10-31T23:34:37.860Z,14.90
2023-10-31T23:37:45.726Z,14.95
2023-10-31T23:40:53.873Z,14.87
2023-10-31T23:44:00.282Z,14.66
2023-10-31T23:47:06.945Z,14.64
2023-10-31T23:50:13.750Z,14.61
2023-10-31T23:53:20.767Z,14.71
2023-10-31T23:56:27.645Z,14.59
2023-10-31T23:59:33.275Z,14.70
